This is the latest recevied weather packets stored in our database for station/object XE2CT-20. If no packets are shown the sender has not sent any weather packets the latest 10 day(s).
| Time | Temp. | Humidity | Pressure | Rain* | Wind** | Luminosity | Snow |
|---|---|---|---|---|---|---|---|
| 1777925580 | 35° C | 36% | 1002 hPa | - | - | - | - |
| 1777924679 | 35° C | 35% | 1002 hPa | - | - | - | - |
| 1777923778 | 33.89° C | 37% | 1003 hPa | - | - | - | - |
| 1777922877 | 33.33° C | 38% | 1004 hPa | - | - | - | - |
| 1777921976 | 32.78° C | 38% | 1004 hPa | - | - | - | - |
| 1777921075 | 33.33° C | 37% | 1003 hPa | - | - | - | - |
| 1777920174 | 32.22° C | 42% | 1006 hPa | - | - | - | - |
| 1777919273 | 32.22° C | 41% | 1005 hPa | - | - | - | - |
| 1777918372 | 31.67° C | 41% | 1006 hPa | - | - | - | - |
| 1777917471 | 31.11° C | 40% | 1006 hPa | - | - | - | - |
| 1777916570 | 31.11° C | 41% | 1006 hPa | - | - | - | - |
| 1777915669 | 30.56° C | 45% | 1008 hPa | - | - | - | - |
| 1777914768 | 30° C | 44% | 1008 hPa | - | - | - | - |
| 1777913867 | 29.44° C | 46% | 1009 hPa | - | - | - | - |
| 1777912966 | 28.89° C | 48% | 1010 hPa | - | - | - | - |
| 1777912065 | 28.89° C | 49% | 1011 hPa | - | - | - | - |
| 1777911164 | 28.33° C | 48% | 1010 hPa | - | - | - | - |
| 1777910263 | 27.22° C | 55% | 1014 hPa | - | - | - | - |
| 1777909362 | 27.22° C | 52% | 1013 hPa | - | - | - | - |
| 1777908460 | 26.67° C | 56% | 1015 hPa | - | - | - | - |
| 1777907559 | 26.11° C | 54% | 1014 hPa | - | - | - | - |
| 1777906658 | 26.11° C | 55% | 1014 hPa | - | - | - | - |
| 1777905757 | 26.11° C | 61% | 1018 hPa | - | - | - | - |
| 1777904856 | 25.56° C | 62% | 1018 hPa | - | - | - | - |
| 1777903955 | 25.56° C | 58% | 1016 hPa | - | - | - | - |
* Rain since midnight (hover to see other rain measurements)
** Current wind speed in m/s (hover to see current wind gust speed)